createdAt,value
2023-03-03T00:02:24.200Z,3.50
2023-03-03T00:05:15.523Z,3.50
2023-03-03T00:08:02.015Z,3.40
2023-03-03T00:10:48.677Z,3.40
2023-03-03T00:13:45.220Z,3.40
2023-03-03T00:16:36.885Z,3.30
2023-03-03T00:19:23.348Z,3.30
2023-03-03T00:22:22.109Z,3.20
2023-03-03T00:25:30.095Z,3.20
2023-03-03T00:28:27.412Z,3.30
2023-03-03T00:31:18.604Z,3.30
2023-03-03T00:34:25.675Z,3.30
2023-03-03T00:37:27.503Z,3.20
2023-03-03T00:40:24.949Z,3.20
2023-03-03T00:43:20.081Z,3.10
2023-03-03T00:46:06.699Z,3.20
2023-03-03T00:48:53.052Z,3.20
2023-03-03T00:51:45.050Z,3.10
2023-03-03T00:54:31.714Z,3.10
2023-03-03T00:57:18.236Z,3.00
2023-03-03T01:00:05.072Z,3.00
2023-03-03T01:02:52.362Z,2.90
2023-03-03T01:05:39.236Z,2.80
2023-03-03T01:08:27.175Z,2.70
2023-03-03T01:11:18.473Z,2.70
2023-03-03T01:14:04.956Z,2.70
2023-03-03T01:16:51.584Z,2.70
2023-03-03T01:19:38.004Z,2.80
2023-03-03T01:22:24.397Z,2.80
2023-03-03T01:25:12.642Z,2.80
2023-03-03T01:27:59.488Z,2.80
2023-03-03T01:30:46.017Z,2.80
2023-03-03T01:33:32.656Z,2.80
2023-03-03T01:36:24.920Z,2.70
2023-03-03T01:39:12.440Z,2.70
2023-03-03T01:42:00.282Z,2.60
2023-03-03T01:44:47.095Z,2.70
2023-03-03T01:47:35.123Z,2.30
2023-03-03T01:50:33.983Z,2.70
2023-03-03T01:53:24.785Z,2.70
2023-03-03T01:56:12.088Z,2.70
2023-03-03T01:59:03.561Z,2.60
2023-03-03T02:01:50.631Z,2.70
2023-03-03T02:04:37.592Z,2.60
2023-03-03T02:07:25.619Z,2.70
2023-03-03T02:10:13.791Z,2.60
2023-03-03T02:13:00.970Z,3.00
2023-03-03T02:15:48.912Z,2.70
2023-03-03T02:18:35.912Z,2.60
2023-03-03T02:21:24.212Z,2.70
2023-03-03T02:24:19.105Z,2.70
2023-03-03T02:27:07.279Z,2.70
2023-03-03T02:29:53.791Z,2.80
2023-03-03T02:32:40.279Z,2.70
2023-03-03T02:35:30.655Z,2.70
2023-03-03T02:38:22.613Z,2.70
2023-03-03T02:41:15.495Z,2.60
2023-03-03T02:44:05.137Z,2.60
2023-03-03T02:46:53.258Z,2.60
2023-03-03T02:49:39.947Z,2.60
2023-03-03T02:52:26.334Z,2.60
2023-03-03T02:55:12.664Z,2.60
2023-03-03T02:57:59.521Z,2.50
2023-03-03T03:00:48.324Z,2.50
2023-03-03T03:03:34.950Z,2.40
2023-03-03T03:06:21.473Z,2.40
2023-03-03T03:09:09.315Z,2.40
2023-03-03T03:11:56.007Z,2.50
2023-03-03T03:14:42.719Z,2.50
2023-03-03T03:17:30.670Z,2.50
2023-03-03T03:20:17.465Z,2.50
2023-03-03T03:23:03.851Z,2.50
2023-03-03T03:25:50.501Z,2.50
2023-03-03T03:28:37.839Z,2.60
2023-03-03T03:31:24.787Z,2.50
2023-03-03T03:34:12.851Z,2.50
2023-03-03T03:36:59.241Z,2.50
2023-03-03T03:39:45.729Z,2.50
2023-03-03T03:42:32.343Z,2.50
2023-03-03T03:45:19.098Z,2.50
2023-03-03T03:48:05.656Z,2.50
2023-03-03T03:50:53.764Z,2.50
2023-03-03T03:53:40.411Z,2.60
2023-03-03T03:56:26.958Z,2.60
2023-03-03T03:59:13.280Z,2.60
2023-03-03T04:01:59.773Z,2.60
2023-03-03T04:04:46.223Z,2.50
2023-03-03T04:07:34.186Z,2.50
2023-03-03T04:10:20.886Z,2.40
2023-03-03T04:13:07.664Z,2.40
2023-03-03T04:15:54.158Z,2.40
2023-03-03T04:18:40.624Z,2.40
2023-03-03T04:21:27.942Z,2.40
2023-03-03T04:24:15.638Z,2.40
2023-03-03T04:27:02.314Z,2.50
2023-03-03T04:29:49.145Z,2.40
2023-03-03T04:32:35.572Z,2.50
2023-03-03T04:35:22.274Z,2.30
2023-03-03T04:38:09.188Z,2.30
2023-03-03T04:40:57.790Z,2.30
2023-03-03T04:43:44.358Z,2.40
2023-03-03T04:46:30.940Z,2.40
2023-03-03T04:49:17.276Z,2.30
2023-03-03T04:52:03.558Z,2.30
2023-03-03T04:54:49.970Z,2.40
2023-03-03T04:57:37.912Z,2.30
2023-03-03T05:00:24.667Z,2.30
2023-03-03T05:03:13.164Z,2.40
2023-03-03T05:05:59.607Z,2.40
2023-03-03T05:08:46.351Z,2.40
2023-03-03T05:11:33.074Z,2.40
2023-03-03T05:14:20.829Z,2.40
2023-03-03T05:17:07.437Z,2.50
2023-03-03T05:19:54.193Z,2.30
2023-03-03T05:22:40.946Z,2.40
2023-03-03T05:25:27.369Z,2.40
2023-03-03T05:28:13.914Z,2.40
2023-03-03T05:31:01.739Z,2.40
2023-03-03T05:33:48.412Z,2.40
2023-03-03T05:36:34.933Z,2.40
2023-03-03T05:39:21.550Z,2.40
2023-03-03T05:42:07.950Z,2.40
2023-03-03T05:44:54.722Z,2.40
2023-03-03T05:47:42.781Z,2.40
2023-03-03T05:50:29.341Z,2.40
2023-03-03T05:53:15.776Z,2.40
2023-03-03T05:56:02.303Z,2.40
2023-03-03T05:58:48.571Z,2.40
2023-03-03T06:01:35.070Z,2.40
2023-03-03T06:04:22.988Z,2.40
2023-03-03T06:07:09.437Z,2.40
2023-03-03T06:09:55.973Z,2.50
2023-03-03T06:12:42.545Z,2.50
2023-03-03T06:15:28.888Z,2.50
2023-03-03T06:18:15.399Z,2.50
2023-03-03T06:21:03.321Z,2.50
2023-03-03T06:23:49.915Z,2.50
2023-03-03T06:26:36.625Z,2.50
2023-03-03T06:29:23.124Z,2.50
2023-03-03T06:32:09.654Z,2.50
2023-03-03T06:34:56.483Z,2.50
2023-03-03T06:37:44.327Z,2.50
2023-03-03T06:40:30.835Z,2.50
2023-03-03T06:43:17.446Z,2.40
2023-03-03T06:46:04.491Z,2.50
2023-03-03T06:48:51.350Z,2.50
2023-03-03T06:51:39.988Z,2.50
2023-03-03T06:54:31.088Z,2.50
2023-03-03T06:57:23.067Z,2.40
2023-03-03T07:00:18.403Z,2.50
2023-03-03T07:03:13.299Z,2.60
2023-03-03T07:05:59.561Z,2.50
2023-03-03T07:08:45.960Z,2.50
2023-03-03T07:11:37.120Z,2.50
2023-03-03T07:14:23.741Z,2.60
2023-03-03T07:17:16.527Z,2.60
2023-03-03T07:20:03.164Z,2.60
2023-03-03T07:22:51.486Z,2.60
2023-03-03T07:25:38.120Z,2.70
2023-03-03T07:28:27.952Z,2.60
2023-03-03T07:31:31.223Z,2.70
2023-03-03T07:34:22.624Z,2.60
2023-03-03T07:37:17.543Z,2.70
2023-03-03T07:40:27.687Z,2.70
2023-03-03T07:43:32.696Z,2.60
2023-03-03T07:46:28.829Z,2.80
2023-03-03T07:49:23.608Z,2.70
2023-03-03T07:52:28.198Z,2.80
2023-03-03T07:55:36.499Z,2.80
2023-03-03T07:58:28.822Z,2.90
2023-03-03T08:01:42.654Z,2.90
2023-03-03T08:04:33.538Z,2.90
2023-03-03T08:07:22.780Z,2.90
2023-03-03T08:10:32.114Z,3.00
2023-03-03T08:13:20.860Z,3.00
2023-03-03T08:16:29.302Z,3.10
2023-03-03T08:19:18.060Z,3.20
2023-03-03T08:22:14.665Z,3.10
2023-03-03T08:25:01.435Z,2.90
2023-03-03T08:27:47.882Z,2.90
2023-03-03T08:30:34.445Z,3.00
2023-03-03T08:33:22.227Z,3.10
2023-03-03T08:36:09.650Z,3.20
2023-03-03T08:38:56.677Z,3.20
2023-03-03T08:41:44.423Z,3.20
2023-03-03T08:44:30.782Z,3.30
2023-03-03T08:47:17.195Z,3.20
2023-03-03T08:50:05.478Z,3.20
2023-03-03T08:52:52.136Z,3.10
2023-03-03T08:55:42.902Z,3.20
2023-03-03T08:58:35.250Z,3.30
2023-03-03T09:01:22.913Z,3.40
2023-03-03T09:04:09.775Z,3.30
2023-03-03T09:06:57.734Z,3.30
2023-03-03T09:09:44.328Z,3.30
2023-03-03T09:12:34.479Z,3.30
2023-03-03T09:15:24.441Z,3.40
2023-03-03T09:18:20.328Z,3.50
2023-03-03T09:21:22.041Z,3.40
2023-03-03T09:24:22.991Z,3.50
2023-03-03T09:27:19.659Z,3.50
2023-03-03T09:30:17.551Z,3.60
2023-03-03T09:33:18.290Z,3.50
2023-03-03T09:36:16.120Z,3.50
2023-03-03T09:39:13.286Z,3.50
2023-03-03T09:42:35.802Z,3.60
2023-03-03T09:45:56.654Z,3.60
2023-03-03T09:48:53.701Z,3.70
2023-03-03T09:51:59.226Z,3.70
2023-03-03T09:54:56.102Z,3.60
2023-03-03T09:58:10.117Z,3.60
2023-03-03T10:01:14.999Z,3.50
2023-03-03T10:04:49.991Z,3.50
2023-03-03T10:07:47.896Z,3.60
2023-03-03T10:10:50.212Z,3.40
2023-03-03T10:13:53.977Z,3.30
2023-03-03T10:16:54.578Z,3.40
2023-03-03T10:19:46.494Z,3.40
2023-03-03T10:22:42.237Z,3.60
2023-03-03T10:25:42.275Z,3.60
2023-03-03T10:28:58.491Z,3.70
2023-03-03T10:31:58.154Z,3.60
2023-03-03T10:34:55.867Z,3.20
2023-03-03T10:37:53.343Z,3.60
2023-03-03T10:40:46.514Z,3.80
2023-03-03T10:43:58.857Z,3.50
2023-03-03T10:47:00.045Z,3.20
2023-03-03T10:49:56.272Z,3.70
2023-03-03T10:52:47.870Z,3.70
2023-03-03T10:55:41.838Z,3.70
2023-03-03T10:58:46.322Z,3.50
2023-03-03T11:01:47.391Z,3.70
2023-03-03T11:04:51.737Z,3.80
2023-03-03T11:07:43.787Z,3.80
2023-03-03T11:10:42.256Z,3.90
2023-03-03T11:13:39.245Z,4.00
2023-03-03T11:16:50.310Z,3.90
2023-03-03T11:19:48.070Z,3.60
2023-03-03T11:22:47.015Z,3.70
2023-03-03T11:25:40.050Z,3.90
2023-03-03T11:28:38.679Z,4.10
2023-03-03T11:31:35.164Z,4.20
2023-03-03T11:34:38.574Z,4.40
2023-03-03T11:37:30.811Z,4.40
2023-03-03T11:40:23.207Z,4.10
2023-03-03T11:43:33.857Z,4.10
2023-03-03T11:46:27.633Z,4.40
2023-03-03T11:49:22.635Z,4.00
2023-03-03T11:52:23.212Z,4.40
2023-03-03T11:55:15.276Z,4.40
2023-03-03T11:58:14.369Z,4.30
2023-03-03T12:01:08.007Z,4.30
2023-03-03T12:03:59.752Z,4.20
2023-03-03T12:07:01.906Z,4.20
2023-03-03T12:10:03.966Z,4.40
2023-03-03T12:12:56.569Z,4.10
2023-03-03T12:15:50.657Z,4.40
2023-03-03T12:19:03.627Z,4.60
2023-03-03T12:22:01.904Z,4.50
2023-03-03T12:25:13.241Z,4.60
2023-03-03T12:28:06.747Z,4.50
2023-03-03T12:31:22.870Z,4.60
2023-03-03T12:34:19.677Z,4.70
2023-03-03T12:37:41.162Z,4.60
2023-03-03T12:40:33.157Z,4.50
2023-03-03T12:43:33.097Z,4.60
2023-03-03T12:46:30.133Z,4.70
2023-03-03T12:49:16.984Z,4.10
2023-03-03T12:52:16.950Z,4.30
2023-03-03T12:55:12.438Z,4.60
2023-03-03T12:58:09.929Z,4.60
2023-03-03T13:01:02.810Z,4.60
2023-03-03T13:04:05.264Z,4.60
2023-03-03T13:06:59.346Z,4.70
2023-03-03T13:10:05.679Z,4.80
2023-03-03T13:12:58.953Z,4.90
2023-03-03T13:15:57.578Z,4.80
2023-03-03T13:18:56.771Z,4.50
2023-03-03T13:21:48.602Z,4.70
2023-03-03T13:24:42.860Z,4.90
2023-03-03T13:27:36.795Z,4.90
2023-03-03T13:30:25.731Z,4.80
2023-03-03T13:33:16.936Z,4.70
2023-03-03T13:36:10.113Z,4.60
2023-03-03T13:39:00.542Z,4.70
2023-03-03T13:41:53.298Z,4.90
2023-03-03T13:44:42.774Z,4.60
2023-03-03T13:47:35.012Z,4.60
2023-03-03T13:50:28.392Z,4.80
2023-03-03T13:53:35.717Z,4.80
2023-03-03T13:56:48.071Z,4.40
2023-03-03T13:59:45.404Z,4.70
2023-03-03T14:02:58.359Z,4.70
2023-03-03T14:05:49.506Z,4.80
2023-03-03T14:08:56.024Z,4.80
2023-03-03T14:11:48.257Z,4.70
2023-03-03T14:14:50.743Z,5.00
2023-03-03T14:17:46.185Z,4.90
2023-03-03T14:20:35.631Z,5.10
2023-03-03T14:23:26.661Z,5.00
2023-03-03T14:26:14.896Z,5.20
2023-03-03T14:29:21.410Z,5.40
2023-03-03T14:32:35.878Z,5.50
2023-03-03T14:35:32.177Z,5.90
2023-03-03T14:38:20.355Z,5.90
2023-03-03T14:41:16.104Z,5.90
2023-03-03T14:44:03.682Z,6.10
2023-03-03T14:47:04.499Z,6.00
2023-03-03T14:49:52.302Z,6.10
2023-03-03T14:52:40.289Z,6.20
2023-03-03T14:55:35.222Z,6.30
2023-03-03T14:58:32.606Z,6.30
2023-03-03T15:01:33.910Z,6.40
2023-03-03T15:04:27.320Z,6.30
2023-03-03T15:07:33.427Z,6.30
2023-03-03T15:10:38.621Z,6.20
2023-03-03T15:13:37.009Z,6.20
2023-03-03T15:16:25.321Z,6.30
2023-03-03T15:19:43.020Z,6.30
2023-03-03T15:22:47.539Z,6.50
2023-03-03T15:25:43.793Z,6.50
2023-03-03T15:28:47.043Z,6.60
2023-03-03T15:31:45.488Z,6.90
2023-03-03T15:34:41.060Z,7.00
2023-03-03T15:37:39.683Z,7.00
2023-03-03T15:40:30.911Z,7.00
2023-03-03T15:43:27.864Z,7.20
2023-03-03T15:46:25.690Z,7.00
2023-03-03T15:49:24.044Z,6.90
2023-03-03T15:52:25.070Z,7.30
2023-03-03T15:55:27.612Z,7.40
2023-03-03T15:58:39.225Z,7.40
2023-03-03T16:01:30.731Z,7.40
2023-03-03T16:04:19.645Z,7.10
2023-03-03T16:07:14.728Z,7.00
2023-03-03T16:10:12.229Z,7.00
2023-03-03T16:13:24.645Z,7.00
2023-03-03T16:16:23.737Z,6.70
2023-03-03T16:19:25.116Z,6.50
2023-03-03T16:22:32.839Z,6.40
2023-03-03T16:25:33.826Z,6.30
2023-03-03T16:28:23.987Z,6.20
2023-03-03T16:31:14.999Z,6.20
2023-03-03T16:34:13.514Z,6.30
2023-03-03T16:37:13.537Z,6.20
2023-03-03T16:40:11.924Z,6.20
2023-03-03T16:43:06.828Z,6.20
2023-03-03T16:45:59.857Z,6.20
2023-03-03T16:48:54.579Z,6.20
2023-03-03T16:51:48.672Z,6.10
2023-03-03T16:54:44.295Z,6.10
2023-03-03T16:57:39.892Z,6.20
2023-03-03T17:00:30.279Z,6.10
2023-03-03T17:03:38.408Z,6.00
2023-03-03T17:06:32.249Z,6.00
2023-03-03T17:09:44.969Z,6.00
2023-03-03T17:12:43.886Z,6.00
2023-03-03T17:15:40.876Z,6.00
2023-03-03T17:18:38.825Z,5.80
2023-03-03T17:21:36.521Z,5.80
2023-03-03T17:24:32.087Z,5.80
2023-03-03T17:27:27.524Z,5.80
2023-03-03T17:30:22.416Z,5.90
2023-03-03T17:33:27.787Z,5.90
2023-03-03T17:36:26.041Z,5.90
2023-03-03T17:39:38.274Z,6.00
2023-03-03T17:42:35.390Z,6.00
2023-03-03T17:45:23.195Z,5.90
2023-03-03T17:48:42.852Z,5.90
2023-03-03T17:52:00.109Z,5.90
2023-03-03T17:55:12.169Z,5.90
2023-03-03T17:58:26.501Z,5.90
2023-03-03T18:01:23.825Z,5.90
2023-03-03T18:04:28.458Z,5.90
2023-03-03T18:07:34.953Z,5.80
2023-03-03T18:11:10.239Z,5.90
2023-03-03T18:14:24.593Z,5.80
2023-03-03T18:17:36.549Z,5.90
2023-03-03T18:20:49.126Z,5.80
2023-03-03T18:23:41.869Z,5.70
2023-03-03T18:26:37.577Z,5.70
2023-03-03T18:29:30.178Z,5.70
2023-03-03T18:32:22.610Z,5.80
2023-03-03T18:35:27.736Z,5.80
2023-03-03T18:38:34.695Z,5.90
2023-03-03T18:41:26.481Z,5.80
2023-03-03T18:44:28.826Z,5.80
2023-03-03T18:47:17.579Z,5.90
2023-03-03T18:50:16.179Z,5.80
2023-03-03T18:53:14.486Z,5.90
2023-03-03T18:56:02.570Z,5.90
2023-03-03T18:58:52.702Z,5.90
2023-03-03T19:01:45.492Z,5.90
2023-03-03T19:04:37.848Z,5.90
2023-03-03T19:07:27.957Z,5.90
2023-03-03T19:10:47.868Z,5.80
2023-03-03T19:13:52.342Z,5.90
2023-03-03T19:16:39.028Z,5.90
2023-03-03T19:19:32.608Z,6.00
2023-03-03T19:22:27.782Z,5.90
2023-03-03T19:25:19.132Z,5.80
2023-03-03T19:28:29.652Z,5.90
2023-03-03T19:31:26.171Z,6.00
2023-03-03T19:34:20.124Z,5.90
2023-03-03T19:37:18.496Z,6.00
2023-03-03T19:40:17.523Z,6.00
2023-03-03T19:43:12.869Z,6.00
2023-03-03T19:46:22.168Z,6.00
2023-03-03T19:49:19.602Z,6.00
2023-03-03T19:52:16.350Z,6.10
2023-03-03T19:55:19.305Z,6.00
2023-03-03T19:58:19.213Z,6.10
2023-03-03T20:01:15.120Z,6.00
2023-03-03T20:04:30.620Z,6.10
2023-03-03T20:07:30.060Z,6.00
2023-03-03T20:10:36.380Z,6.00
2023-03-03T20:13:39.165Z,6.10
2023-03-03T20:16:37.276Z,6.10
2023-03-03T20:19:35.473Z,6.10
2023-03-03T20:22:35.440Z,6.10
2023-03-03T20:25:30.817Z,6.10
2023-03-03T20:28:41.125Z,6.00
2023-03-03T20:31:36.163Z,6.10
2023-03-03T20:34:34.753Z,6.20
2023-03-03T20:37:26.813Z,6.10
2023-03-03T20:40:21.656Z,6.10
2023-03-03T20:43:22.440Z,6.10
2023-03-03T20:46:16.818Z,6.10
2023-03-03T20:49:22.810Z,6.10
2023-03-03T20:52:15.694Z,6.10
2023-03-03T20:55:10.815Z,6.10
2023-03-03T20:58:02.610Z,6.10
2023-03-03T21:00:57.736Z,6.00
2023-03-03T21:03:45.943Z,6.10
2023-03-03T21:06:40.885Z,5.90
2023-03-03T21:09:29.972Z,6.00
2023-03-03T21:12:28.995Z,6.10
2023-03-03T21:15:26.158Z,6.00
2023-03-03T21:18:25.090Z,6.00
2023-03-03T21:21:11.776Z,6.00
2023-03-03T21:23:59.103Z,5.90
2023-03-03T21:26:48.155Z,5.80
2023-03-03T21:29:36.675Z,5.90
2023-03-03T21:32:36.589Z,6.00
2023-03-03T21:35:24.511Z,6.00
2023-03-03T21:38:11.499Z,5.90
2023-03-03T21:41:02.378Z,5.90
2023-03-03T21:43:50.615Z,5.90
2023-03-03T21:46:37.285Z,5.90
2023-03-03T21:49:23.671Z,5.90
2023-03-03T21:52:11.952Z,5.90
2023-03-03T21:54:58.519Z,5.90
2023-03-03T21:57:44.903Z,6.00
2023-03-03T22:00:31.251Z,5.90
2023-03-03T22:03:20.365Z,5.90
2023-03-03T22:06:07.816Z,5.90
2023-03-03T22:08:55.624Z,5.90
2023-03-03T22:11:42.252Z,5.80
2023-03-03T22:14:28.630Z,5.90
2023-03-03T22:17:14.986Z,5.80
2023-03-03T22:20:01.374Z,5.80
2023-03-03T22:22:47.700Z,5.80
2023-03-03T22:25:35.600Z,6.00
2023-03-03T22:28:22.042Z,5.90
2023-03-03T22:31:08.564Z,5.80
2023-03-03T22:33:55.528Z,6.00
2023-03-03T22:36:41.920Z,5.90
2023-03-03T22:39:28.356Z,5.90
2023-03-03T22:42:16.255Z,5.90
2023-03-03T22:45:02.758Z,5.90
2023-03-03T22:47:49.137Z,5.90
2023-03-03T22:50:39.449Z,5.90
2023-03-03T22:53:26.814Z,5.80
2023-03-03T22:56:13.161Z,5.70
2023-03-03T22:59:00.790Z,5.70
2023-03-03T23:01:47.646Z,5.80
2023-03-03T23:04:34.267Z,5.80
2023-03-03T23:07:20.998Z,5.80
2023-03-03T23:10:08.957Z,5.80
2023-03-03T23:12:55.470Z,5.90
2023-03-03T23:15:43.361Z,5.80
2023-03-03T23:18:30.681Z,5.80
2023-03-03T23:21:17.425Z,5.80
2023-03-03T23:24:03.990Z,5.80
2023-03-03T23:26:51.842Z,5.70
2023-03-03T23:29:39.048Z,5.70
2023-03-03T23:32:26.938Z,5.80
2023-03-03T23:35:13.927Z,5.80
2023-03-03T23:38:00.588Z,5.80
2023-03-03T23:40:47.697Z,5.80
2023-03-03T23:43:35.361Z,5.80
2023-03-03T23:46:22.022Z,5.70
2023-03-03T23:49:09.762Z,5.80
2023-03-03T23:51:56.266Z,5.80
2023-03-03T23:54:42.579Z,5.80
2023-03-03T23:57:29.057Z,5.70
